Hinkle, KY

7:56 PM EDT on July 28, 2014 (GMT -0400)
London-Corbin / McKee (KLOZ) Elev 1211 ft | 37.09 °N, 84.08 °W | Change Station

Current weather conditions updated 1 hour ago

Mostly Cloudy
Mostly Cloudy
74 °F
Feels Like 74 °F
N
10
Wind Variable Wind from NNW

Tomorrow is forecast to be Cooler than today.

Today
High -- | Low -- °F
--% Chance of Precip.
Yesterday
High -- | Low -- °F
Precip. -- in
6:37 AM 8:45 PM
Waxing Crescent, 4% visible
Pressure 29.97 in
Visibility 10.0 miles
Clouds Scattered Clouds 4000 ft
Mostly Cloudy 8000 ft
Dew Point 57 °F
Humidity 55%
Rainfall 0.00 in
Snow Depth Not available.
UV 1 out of 12
Pollen 3.60 out of 12
Air Quality Not available.
Flu Activity Not available.
METAR KLOZ 282253Z AUTO 34009KT 10SM SCT040 BKN080 23/14 A3000 RMK AO2 SLP147 T02330139

More Conditions Fewer Conditions

Pressure 29.97 in
Visibility 10.0 miles
Clouds Scattered Clouds 4000 ft
Mostly Cloudy 8000 ft
Dew Point 57 °F
Humidity 55%
Rainfall 0.00 in
Snow Depth Not available.
UV 1 out of 12
Pollen 3.60 out of 12
Air Quality Not available.
Flu Activity Not available.
METAR KLOZ 282253Z AUTO 34009KT 10SM SCT040 BKN080 23/14 A3000 RMK AO2 SLP147 T02330139

More Conditions Fewer Conditions

10-Day Weather Forecast

Almanac

Astronomy

Jul. 28, 2014 Rise Set
Actual Time 6:37 AM EDT 8:45 PM EDT
Civil Twilight 6:08 AM EDT 9:14 PM EDT
Nautical Twilight 5:32 AM EDT 9:49 PM EDT
Astronomical Twilight 4:54 AM EDT 10:27 PM EDT
Moon 8:14 AM EDT 9:31 PM EDT
Length of Visible Light 15h 05m
Length of Day
14h 08m
Tomorrow will be 1m 40s shorter.
Waxing Crescent, 4% of the Moon is Illuminated
Today
Waxing Crescent
Aug 3
First Quarter
Aug 10
Full
Aug 17
Last Quarter
Aug 25
New

Today's Extremes

State Highs State Lows

Community

WunderPhotos

Upload Photos

1,738,553 photos uploaded!

Nearby

Snow Depth

Station Depth Elevation
No new snow has been reported.

Earthquake Activity

City Distance Mag. Time & Date
No recent earthquake activity has been reported nearby.
Minimum magnitude displayed is 2.5.

Coastal Water Temperatures

Place Temperature
No Stations Reporting

Nearby Weather Stations

Station Location Temp. Heat Index Dew Point Humidity Wind Precip. Elev Updated Type
liford's, Barbourville, KY 71.1 °F 72 °F 64 °F 77% NNE  at  0.0 mph - / hr 1066 ft 7:53 PM EDT Normal
Mackey Bend, Barbourville, KY 71.6 °F 71 °F 66 °F 82% NNW  at  2.2 mph 0.00 in / hr 1020 ft 7:55 PM EDT Rapid Fire
Colmar, Middlesboro, KY 72.0 °F 74 °F 62 °F 71% South  at  0.0 mph - / hr 1135 ft 7:52 PM EDT Normal
RAWS YELLOW CREEK KY, Middlesboro, KY 75 °F 77 °F 59 °F 57% WNW  at  5 mph 0.00 in / hr 1089 ft 6:26 PM EDT MADIS
RAWS PEABODY KY, Big Creek, KY 70 °F - 59 °F 69% NNE  at  3 mph 0.00 in / hr 1464 ft 7:01 PM EDT MADIS
MSWO, London, KY 72.1 °F 76 °F 56 °F 57% WSW  at  2.9 mph 0.00 in / hr 1163 ft 7:55 PM EDT Rapid Fire
APRSWXNET London KY US, Fall Rock, KY 67 °F - 66 °F 96% North  at  3 mph 0.00 in / hr 1515 ft 7:19 PM EDT MADIS

Show More Stations Show Fewer Stations